x

West Moresby (46208) Wave Buoy

2:00pm - Fri 26th May 2017 All times are PDT. -7 hours from GMT.

  • Sig Wave height 8.2ft
  • Peak Period 11s
  • Wind
    25mph, 29mph gusts
  • Sea Temp 49°f
  • Air Temp 48°f
  • Sea Pressure 1021.1mb
  • West Moresby
  • West Moresby

More Historic Weather Station data

Upgrade to MSW Pro to gain access to the past 30 days of data for over 8000 Wavebouys and Weather Stations around the globe.

Join Pro

Comparision Forecast

View Surf forecast
   
Fri 05/26 2:00pm 8ft 11s 25 29 mph 1021.1mb 49f 48f
1:00pm 8ft 11s 22 27 mph 1020.8mb 49f 48f
12:00pm 8.5ft 11s 22 29 mph 1020.9mb 49f 48f
11:00am 9ft 11s 22 29 mph 1020.9mb 49f 47f
10:00am 9ft 11s 22 29 mph 1021.1mb 49f 47f
9:00am 9ft 12s 22 27 mph 1020.9mb 49f 47f
8:00am  -   -  25
mph
1020.6mb - 46f
7:00am 9ft 11s 25 29 mph 1020.5mb 49f 47f
6:00am 9ft 10s 25 29 mph 1020.2mb 49f 46f
5:00am 9.5ft 11s 25 29 mph 1020.2mb 49f 46f
4:00am 10ft 9s 27 34 mph 1020.3mb 48f 46f
3:00am 9ft 10s 27 34 mph 1020.1mb 48f 46f
2:00am 9.5ft 10s 27 34 mph 1020.2mb 48f 46f
1:00am 9ft 11s 27 31 mph 1020.1mb 48f 46f
12:00am 9.5ft 6s 25 31 mph 1020.1mb 48f 46f
Thu 05/25 11:00pm 9.5ft 6s 27 34 mph 1020.2mb 49f 47f
10:00pm 10ft 7s 29 36 mph 1020.2mb 49f 46f
9:00pm 9.5ft 6s 27 34 mph 1020.3mb 49f 47f
8:00pm 9ft 7s 29 34 mph 1020.4mb 49f 47f
7:00pm 9.5ft 6s 29 36 mph 1020.3mb 48f 48f
6:00pm 10ft 6s 29 36 mph 1020.4mb 49f 48f
5:00pm 9ft 7s 31 40 mph 1020mb 49f 49f
4:00pm 9ft 7s 29 36 mph 1019.9mb 49f 49f
3:00pm 9ft 9s 31 36 mph 1020.1mb 49f 48f
2:00pm 9.5ft 8s 31 40 mph 1020mb 49f 48f
1:00pm  -   -  27
mph
1020.6mb - 48f
12:00pm 9ft 9s 27 34 mph 1020.8mb 49f 48f
11:00am 9ft 8s 27 36 mph 1020.7mb 49f 48f
10:00am 9.5ft 8s 27 34 mph 1021.1mb 49f 48f
9:00am  -   -  29
mph
1021.4mb - 48f
8:00am 10ft 8s 27 31 mph 1021.6mb 49f 48f
7:00am 10ft 7s 29 34 mph 1021.6mb 49f 48f
6:00am 10ft 8s 31 36 mph 1021.7mb 49f 48f
5:00am 9ft 9s 27 34 mph 1022mb 49f 47f
4:00am 9.5ft 9s 27 31 mph 1022.5mb 49f 47f
3:00am 10ft 8s 27 34 mph 1022.6mb 49f 47f
2:00am 9ft 8s 27 34 mph 1022.6mb 49f 47f
1:00am 9.5ft 10s 27 34 mph 1022.6mb 49f 48f
12:00am 9ft 10s 29 34 mph 1023.2mb 49f 48f
Wed 05/24 11:00pm 9.5ft 8s 25 31 mph 1023.6mb 49f 48f
10:00pm 10ft 10s 25
mph
1023.8mb 49f 48f
9:00pm 10ft 8s 27 31 mph 1023.9mb 49f 48f
8:00pm 10.5ft 9s 27 34 mph 1024.5mb 49f 48f
7:00pm  -   -  29
mph
- - -
6:00pm 10.5ft 8s 29 36 mph 1025mb 49f 48f
5:00pm 12ft 9s 29 34 mph 1025.4mb 49f 48f
4:00pm 11ft 10s 27 31 mph 1025.8mb 49f 48f
3:00pm 11.5ft 9s 25 31 mph 1026.4mb 49f 48f
2:00pm 13ft 10s 29 36 mph 1026.2mb 49f 48f
1:00pm 12.5ft 10s 29 34 mph 1026.2mb 49f 48f
12:00pm 12ft 9s 29 36 mph 1026.4mb 49f 48f
11:00am  -   -  29
mph
1026.8mb 49f 48f
10:00am 13ft 10s 29 34 mph 1026.7mb 49f 48f
9:00am 13ft 10s 27 36 mph 1026.8mb 49f 48f
7:00am 13ft 10s 29 36 mph 1025.9mb 49f 48f
6:00am 13ft 9s 31 38 mph 1025.5mb 49f 48f
5:00am 14ft 8s 29 36 mph 1025.9mb 49f 48f
4:00am 13.5ft 8s 29 38 mph 1025.7mb 49f 48f
3:00am 12.5ft 10s 29 38 mph 1025.1mb 49f 49f
2:00am 12ft 10s 27 34 mph 1024.9mb 49f 49f
1:00am 11.5ft 8s 25 34 mph 1024.4mb 49f 49f
12:00am 10.5ft 9s 27 34 mph 1023.8mb 49f 49f
Tue 05/23 11:00pm 10ft 9s 29 36 mph 1023.3mb 49f 49f
10:00pm 10ft 9s 27 31 mph 1022.9mb 49f 49f
9:00pm 10ft 9s 29 36 mph 1022mb 49f 49f
8:00pm 9.5ft 8s 25 31 mph 1021.6mb 49f 49f
7:00pm 9.5ft 8s 27 31 mph 1021.4mb 49f 49f
6:00pm 10ft 8s 25 29 mph 1020.3mb 49f 50f
5:00pm 9.5ft 8s 22 27 mph 1019.7mb 49f 50f
4:00pm 11ft 8s 22 27 mph 1018.8mb 49f 49f
3:00pm 11ft 8s 25 31 mph 1017.4mb 49f 49f
2:00pm 10.5ft 8s 22 27 mph 1016.4mb 49f 48f
1:00pm 11ft 7s 25 31 mph 1015.6mb 49f 48f
12:00pm 10.5ft 7s 25 31 mph 1014.8mb 49f 48f
11:00am 10ft 8s 27 31 mph 1014.4mb 49f 48f
10:00am 9.5ft 8s 27 31 mph 1014mb 49f 48f
9:00am 9.5ft 6s 27 34 mph 1013.9mb 49f 48f
8:00am 9ft 10s 25 29 mph 1013.5mb 49f 48f
7:00am 7.5ft 12s 29 36 mph 1013mb 49f 48f
6:00am 6ft 10s 22 27 mph 1012.8mb 49f 49f
5:00am 7ft 10s 20 25 mph 1013.1mb 49f 49f
4:00am 7ft 11s 20 25 mph 1013.4mb 49f 48f
3:00am 7ft 12s 16 20 mph 1013.6mb 49f 49f
2:00am 7.5ft 11s 13 16 mph 1014mb 49f 49f
1:00am 7ft 13s 13 18 mph 1014.5mb 49f 49f
12:00am 8ft 12s 13 18 mph 1014.9mb 49f 49f
Mon 05/22 11:00pm 8ft 11s 13 18 mph 1015.1mb 49f 49f